Flight Track Log - Related Links

Times and Time Zones

All times are in EST time to prevent confusion due to time zone crossing. See the CES2660 flight status page for this flight to view local times or setup timezone preferences in your user account.

Time Position Orientation Groundspeed Altitude Reporting Facility
EST Latitude Longitude Course Direction KTS MPH feet Rate Location/Type
12:06AM 31.3840 121.7036 343° North 282 325 10,400  Level FlightAware ADS-B (ZSSS / SHA)
12:07AM 31.4263 121.6880 342° North 321 369 11,100 2,000 Climbing FlightAware ADS-B (ZSSS / SHA)
12:08AM 31.4748 121.6700 342° North 339 390 12,500 2,762 Climbing FlightAware ADS-B (ZSSS / SHA)
12:08AM 31.5185 121.6522 341° North 345 397 14,000 3,100 Climbing FlightAware ADS-B (ZSSS / SHA)
12:09AM 31.5559 121.6188 323° Northwest 342 394 15,600 2,273 Climbing FlightAware ADS-B (ZSSS / SHA)
12:11AM 31.7496 121.3910 265° West 359 413 21,500 2,179 Climbing FlightAware ADS-B (ZSSS / SHA)
12:12AM 31.7854 121.3479 314° West 365 420 22,900 2,545 Climbing FlightAware ADS-B (ZSSS / SHA)
12:14AM 31.7590 121.1119 263° West  Level Estimated
12:15AM 31.7427 120.9690 262° West  Level Estimated
12:16AM 31.7263 120.8261 262° West  Level Estimated
12:17AM 31.7097 120.6832 262° West  Level Estimated
12:18AM 31.6930 120.5404 262° West  Level Estimated
12:19AM 31.6761 120.3977 262° West  Level Estimated
12:20AM 31.6591 120.2550 262° West  Level Estimated
12:21AM 31.6418 120.1124 262° West  Level Estimated
12:22AM 31.6245 119.9698 262° West  Level Estimated
12:23AM 31.6070 119.8272 262° West  Level Estimated
12:24AM 31.5893 119.6848 262° West  Level Estimated
12:25AM 31.5714 119.5423 262° West  Level Estimated
12:26AM 31.5534 119.4000 262° West  Level Estimated
12:27AM 31.5353 119.2577 262° West  Level Estimated
12:28AM 31.5169 119.1154 261° West  Level Estimated
12:29AM 31.4985 118.9732 261° West  Level Estimated
12:30AM 31.4798 118.8310 261° West  Level Estimated
12:31AM 31.4611 118.6889 261° West  Level Estimated
12:32AM 31.4421 118.5469 261° West  Level Estimated
12:33AM 31.4230 118.4049 261° West  Level Estimated
12:34AM 31.4037 118.2630 261° West  Level Estimated
12:35AM 31.3843 118.1212 261° West  Level Estimated
12:36AM 31.3648 117.9794 261° West  Level Estimated
12:37AM 31.3450 117.8376 261° West  Level Estimated
12:38AM 31.3251 117.6959 261° West  Level Estimated
12:39AM 31.3051 117.5543 261° West  Level Estimated
12:40AM 31.2849 117.4128 261° West  Level Estimated
12:41AM 31.2646 117.2713 260° West  Level Estimated
12:42AM 31.2441 117.1298 260° West  Level Estimated
12:43AM 31.2234 116.9884 260° West  Level Estimated
12:44AM 31.2106 116.9013 260° West  Level Estimated
12:45AM 31.1977 116.8141 260° West  Level Estimated
12:46AM 31.1848 116.7270 260° West  Level Estimated
12:47AM 31.1718 116.6399 260° West  Level Estimated
12:48AM 31.1587 116.5528 260° West  Level Estimated
12:49AM 31.1456 116.4657 260° West  Level Estimated
12:50AM 31.1324 116.3787 260° West  Level Estimated
12:51AM 31.1192 116.2917 260° West  Level Estimated
12:52AM 31.1059 116.2047 260° West  Level Estimated
12:53AM 31.0926 116.1177 260° West  Level Estimated
12:54AM 31.0791 116.0308 260° West  Level Estimated
12:55AM 31.0657 115.9439 260° West  Level Estimated
12:56AM 31.0522 115.8570 260° West  Level Estimated
12:57AM 31.0386 115.7701 260° West  Level Estimated
12:58AM 31.0250 115.6833 260° West  Level Estimated
12:59AM 31.0112 115.5965 260° West  Level Estimated
01:00AM 30.9975 115.5097 260° West  Level Estimated
01:01AM 30.9837 115.4229 260° West  Level Estimated
01:02AM 30.9698 115.3362 259° West  Level Estimated
01:03AM 30.9559 115.2495 259° West  Level Estimated
01:04AM 30.9419 115.1628 259° West  Level Estimated
01:05AM 30.9279 115.0761 259° West  Level Estimated
01:06AM 30.9137 114.9895 259° West  Level Estimated
01:07AM 30.8996 114.9029 259° West  Level Estimated
01:08AM 30.8854 114.8163 259° West  Level Estimated
01:09AM 30.8711 114.7297 259° West  Level Estimated
01:10AM 30.8568 114.6432 259° West  Level Estimated
01:11AM 30.8424 114.5567 259° West  Level Estimated
01:12AM 30.8279 114.4702 259° West  Level Estimated
01:13AM 30.8134 114.3837 259° West  Level Estimated
01:14AM 30.7989 114.2973 259° West  Level Estimated
01:15AM 30.7842 114.2109 259° West  Level Estimated
01:16AM 30.7838 114.2081 259° West  Level Estimated
01:17AM 30.7838 114.2081 180° South  Level Estimated
01:18AM 30.7838 114.2081 180° South  Level Estimated
01:19AM 30.7838 114.2081 180° South  Level Estimated
01:20AM 30.7838 114.2081 180° South  Level Estimated
01:21AM 30.7838 114.2081 180° South  Level Estimated
01:22AM 30.7838 114.2081 180° South  Level Estimated
01:23AM 30.7838 114.2081 180° South  Level Estimated
01:24AM 30.7838 114.2081 180° South  Level Estimated
01:25AM 30.7838 114.2081 180° South  Level Estimated
01:26AM 30.7838 114.2081 180° South  Level Estimated
01:27AM 30.7838 114.2081 180° South  Level Estimated
01:28AM 30.7838 114.2081 180° South  Level Estimated
01:29AM 30.7838 114.2081 180° South  Level Estimated
01:30AM 30.7838 114.2081 180° South  Level Estimated
01:31AM 30.7838 114.2081 180° South  Level Estimated
01:32AM 30.7838 114.2081 180° South  Level Estimated
01:33AM 30.7838 114.2081 180° South  Level Estimated
01:34AM 30.7838 114.2081 180° South  Level Estimated
01:35AM 30.7838 114.2081 180° South  Level Estimated
01:36AM 30.7838 114.2081 180° South  Level Estimated
01:37AM 30.7838 114.2081 180° South  Level Estimated
01:38AM 30.7838 114.2081 180° South  Level Estimated
01:39AM 30.7838 114.2081 180° South  Level Estimated
01:40AM 30.7838 114.2081 180° South  Level Estimated

Login

Don't have an account? Register now (free) for customized features, flight alerts, and more!